sensor_id;sensor_type;location;lat;lon;timestamp;temperature;humidity
7472;DHT22;3777;48.722;8.110;2023-07-13T00:02:21;22.30;99.90
7472;DHT22;3777;48.722;8.110;2023-07-13T00:04:48;22.30;99.90
7472;DHT22;3777;48.722;8.110;2023-07-13T00:07:16;22.30;99.90
7472;DHT22;3777;48.722;8.110;2023-07-13T00:09:45;22.40;99.90
7472;DHT22;3777;48.722;8.110;2023-07-13T00:12:29;22.40;99.90
7472;DHT22;3777;48.722;8.110;2023-07-13T00:14:57;22.40;99.90
7472;DHT22;3777;48.722;8.110;2023-07-13T00:17:25;22.40;99.90
7472;DHT22;3777;48.722;8.110;2023-07-13T00:19:52;22.30;99.90
7472;DHT22;3777;48.722;8.110;2023-07-13T00:22:21;22.30;99.90
7472;DHT22;3777;48.722;8.110;2023-07-13T00:24:53;22.20;99.90
7472;DHT22;3777;48.722;8.110;2023-07-13T00:27:22;22.10;99.90
7472;DHT22;3777;48.722;8.110;2023-07-13T00:29:50;22.10;99.90
7472;DHT22;3777;48.722;8.110;2023-07-13T00:32:20;22.00;99.90
7472;DHT22;3777;48.722;8.110;2023-07-13T00:34:47;21.90;99.90
7472;DHT22;3777;48.722;8.110;2023-07-13T00:37:14;21.90;99.90
7472;DHT22;3777;48.722;8.110;2023-07-13T00:39:41;21.80;99.90
7472;DHT22;3777;48.722;8.110;2023-07-13T00:42:08;21.70;99.90
7472;DHT22;3777;48.722;8.110;2023-07-13T00:44:35;21.60;99.90
7472;DHT22;3777;48.722;8.110;2023-07-13T00:47:04;21.50;99.90
7472;DHT22;3777;48.722;8.110;2023-07-13T00:49:32;21.40;99.90
7472;DHT22;3777;48.722;8.110;2023-07-13T00:52:03;21.40;99.90
7472;DHT22;3777;48.722;8.110;2023-07-13T00:54:33;21.30;99.90
7472;DHT22;3777;48.722;8.110;2023-07-13T00:57:05;21.30;99.90
7472;DHT22;3777;48.722;8.110;2023-07-13T00:59:35;21.20;99.90
7472;DHT22;3777;48.722;8.110;2023-07-13T01:02:04;21.20;99.90
7472;DHT22;3777;48.722;8.110;2023-07-13T01:04:31;21.10;99.90
7472;DHT22;3777;48.722;8.110;2023-07-13T01:06:58;21.00;99.90
7472;DHT22;3777;48.722;8.110;2023-07-13T01:09:26;20.90;99.90
7472;DHT22;3777;48.722;8.110;2023-07-13T01:11:53;20.80;99.90
7472;DHT22;3777;48.722;8.110;2023-07-13T01:14:20;20.70;99.90
7472;DHT22;3777;48.722;8.110;2023-07-13T01:16:47;20.60;99.90
7472;DHT22;3777;48.722;8.110;2023-07-13T01:19:25;20.60;99.90
7472;DHT22;3777;48.722;8.110;2023-07-13T01:22:03;20.50;99.90
7472;DHT22;3777;48.722;8.110;2023-07-13T01:24:34;20.50;99.90
7472;DHT22;3777;48.722;8.110;2023-07-13T01:27:02;20.40;99.90
7472;DHT22;3777;48.722;8.110;2023-07-13T01:29:31;20.40;99.90
7472;DHT22;3777;48.722;8.110;2023-07-13T01:31:58;20.30;99.90
7472;DHT22;3777;48.722;8.110;2023-07-13T01:34:25;20.30;99.90
7472;DHT22;3777;48.722;8.110;2023-07-13T01:36:52;20.30;99.90
7472;DHT22;3777;48.722;8.110;2023-07-13T01:39:22;20.20;99.90
7472;DHT22;3777;48.722;8.110;2023-07-13T01:41:49;20.20;99.90
7472;DHT22;3777;48.722;8.110;2023-07-13T01:44:16;20.10;99.90
7472;DHT22;3777;48.722;8.110;2023-07-13T01:46:43;20.10;99.90
7472;DHT22;3777;48.722;8.110;2023-07-13T01:49:10;20.10;99.90
7472;DHT22;3777;48.722;8.110;2023-07-13T01:51:37;20.00;99.90
7472;DHT22;3777;48.722;8.110;2023-07-13T01:54:04;20.00;99.90
7472;DHT22;3777;48.722;8.110;2023-07-13T01:56:32;20.00;99.90
7472;DHT22;3777;48.722;8.110;2023-07-13T01:58:59;19.90;99.90
7472;DHT22;3777;48.722;8.110;2023-07-13T02:01:26;19.90;99.90
7472;DHT22;3777;48.722;8.110;2023-07-13T02:03:53;19.80;99.90
7472;DHT22;3777;48.722;8.110;2023-07-13T02:06:20;19.80;99.90
7472;DHT22;3777;48.722;8.110;2023-07-13T02:08:47;19.70;99.90
7472;DHT22;3777;48.722;8.110;2023-07-13T02:11:14;19.60;99.90
7472;DHT22;3777;48.722;8.110;2023-07-13T02:13:42;19.60;99.90
7472;DHT22;3777;48.722;8.110;2023-07-13T02:16:12;19.60;99.90
7472;DHT22;3777;48.722;8.110;2023-07-13T02:18:39;19.60;99.90
7472;DHT22;3777;48.722;8.110;2023-07-13T02:21:06;19.50;99.90
7472;DHT22;3777;48.722;8.110;2023-07-13T02:23:33;19.50;99.90
7472;DHT22;3777;48.722;8.110;2023-07-13T02:26:03;19.40;99.90
7472;DHT22;3777;48.722;8.110;2023-07-13T02:28:30;19.40;99.90
7472;DHT22;3777;48.722;8.110;2023-07-13T02:31:06;19.40;99.90
7472;DHT22;3777;48.722;8.110;2023-07-13T02:33:33;19.30;99.90
7472;DHT22;3777;48.722;8.110;2023-07-13T02:35:59;19.30;99.90
7472;DHT22;3777;48.722;8.110;2023-07-13T02:38:27;19.20;99.90
7472;DHT22;3777;48.722;8.110;2023-07-13T02:40:54;19.30;99.90
7472;DHT22;3777;48.722;8.110;2023-07-13T02:43:22;19.20;99.90
7472;DHT22;3777;48.722;8.110;2023-07-13T02:45:49;19.20;99.90
7472;DHT22;3777;48.722;8.110;2023-07-13T02:48:17;19.20;99.90
7472;DHT22;3777;48.722;8.110;2023-07-13T02:50:44;19.20;99.90
7472;DHT22;3777;48.722;8.110;2023-07-13T02:53:12;19.10;99.90
7472;DHT22;3777;48.722;8.110;2023-07-13T02:55:39;19.10;99.90
7472;DHT22;3777;48.722;8.110;2023-07-13T02:58:06;19.10;99.90
7472;DHT22;3777;48.722;8.110;2023-07-13T03:00:33;19.10;99.90
7472;DHT22;3777;48.722;8.110;2023-07-13T03:03:00;19.00;99.90
7472;DHT22;3777;48.722;8.110;2023-07-13T03:05:28;19.00;99.90
7472;DHT22;3777;48.722;8.110;2023-07-13T03:07:55;18.90;99.90
7472;DHT22;3777;48.722;8.110;2023-07-13T03:10:22;18.90;99.90
7472;DHT22;3777;48.722;8.110;2023-07-13T03:12:49;18.90;99.90
7472;DHT22;3777;48.722;8.110;2023-07-13T03:15:16;18.90;99.90
7472;DHT22;3777;48.722;8.110;2023-07-13T03:17:43;18.80;99.90
7472;DHT22;3777;48.722;8.110;2023-07-13T03:20:11;18.80;99.90
7472;DHT22;3777;48.722;8.110;2023-07-13T03:22:39;18.80;99.90
7472;DHT22;3777;48.722;8.110;2023-07-13T03:25:07;18.80;99.90
7472;DHT22;3777;48.722;8.110;2023-07-13T03:27:34;18.80;99.90
7472;DHT22;3777;48.722;8.110;2023-07-13T03:30:02;18.80;99.90
7472;DHT22;3777;48.722;8.110;2023-07-13T03:32:29;18.80;99.90
7472;DHT22;3777;48.722;8.110;2023-07-13T03:34:56;18.80;99.90
7472;DHT22;3777;48.722;8.110;2023-07-13T03:37:23;18.80;99.90
7472;DHT22;3777;48.722;8.110;2023-07-13T03:39:51;18.80;99.90
7472;DHT22;3777;48.722;8.110;2023-07-13T03:42:18;18.80;99.90
7472;DHT22;3777;48.722;8.110;2023-07-13T03:44:45;18.80;99.90
7472;DHT22;3777;48.722;8.110;2023-07-13T03:47:17;18.80;99.90
7472;DHT22;3777;48.722;8.110;2023-07-13T03:49:45;18.80;99.90
7472;DHT22;3777;48.722;8.110;2023-07-13T03:52:12;18.80;99.90
7472;DHT22;3777;48.722;8.110;2023-07-13T03:54:39;18.80;99.90
7472;DHT22;3777;48.722;8.110;2023-07-13T03:57:08;18.80;99.90
7472;DHT22;3777;48.722;8.110;2023-07-13T03:59:35;18.70;99.90
7472;DHT22;3777;48.722;8.110;2023-07-13T04:02:02;18.70;99.90
7472;DHT22;3777;48.722;8.110;2023-07-13T04:04:30;18.70;99.90
7472;DHT22;3777;48.722;8.110;2023-07-13T04:06:57;18.70;99.90
7472;DHT22;3777;48.722;8.110;2023-07-13T04:09:25;18.70;99.90
7472;DHT22;3777;48.722;8.110;2023-07-13T04:11:52;18.70;99.90
7472;DHT22;3777;48.722;8.110;2023-07-13T04:14:20;18.70;99.90
7472;DHT22;3777;48.722;8.110;2023-07-13T04:16:47;18.70;99.90
7472;DHT22;3777;48.722;8.110;2023-07-13T04:19:14;18.80;99.90
7472;DHT22;3777;48.722;8.110;2023-07-13T04:21:41;18.80;99.90
7472;DHT22;3777;48.722;8.110;2023-07-13T04:24:08;18.80;99.90
7472;DHT22;3777;48.722;8.110;2023-07-13T04:26:35;18.90;99.90
7472;DHT22;3777;48.722;8.110;2023-07-13T04:29:04;18.90;99.90
7472;DHT22;3777;48.722;8.110;2023-07-13T04:31:32;19.00;99.90
7472;DHT22;3777;48.722;8.110;2023-07-13T04:34:00;19.00;99.90
7472;DHT22;3777;48.722;8.110;2023-07-13T04:36:27;19.00;99.90
7472;DHT22;3777;48.722;8.110;2023-07-13T04:38:54;19.10;99.90
7472;DHT22;3777;48.722;8.110;2023-07-13T04:41:21;19.10;99.90
7472;DHT22;3777;48.722;8.110;2023-07-13T04:43:48;19.20;99.90
7472;DHT22;3777;48.722;8.110;2023-07-13T04:46:17;19.30;99.90
7472;DHT22;3777;48.722;8.110;2023-07-13T04:48:46;19.40;99.90
7472;DHT22;3777;48.722;8.110;2023-07-13T04:51:13;19.60;99.90
7472;DHT22;3777;48.722;8.110;2023-07-13T04:53:40;19.70;99.90
7472;DHT22;3777;48.722;8.110;2023-07-13T04:56:07;19.80;99.90
7472;DHT22;3777;48.722;8.110;2023-07-13T04:58:34;19.90;99.90
7472;DHT22;3777;48.722;8.110;2023-07-13T05:01:02;20.00;99.90
7472;DHT22;3777;48.722;8.110;2023-07-13T05:03:29;20.00;99.90
7472;DHT22;3777;48.722;8.110;2023-07-13T05:05:59;20.00;99.90
7472;DHT22;3777;48.722;8.110;2023-07-13T05:08:26;20.00;99.90
7472;DHT22;3777;48.722;8.110;2023-07-13T05:10:54;20.00;99.90
7472;DHT22;3777;48.722;8.110;2023-07-13T05:13:21;20.00;99.90
7472;DHT22;3777;48.722;8.110;2023-07-13T05:15:56;20.10;99.90
7472;DHT22;3777;48.722;8.110;2023-07-13T05:18:29;20.20;99.90
7472;DHT22;3777;48.722;8.110;2023-07-13T05:21:02;20.20;99.90
7472;DHT22;3777;48.722;8.110;2023-07-13T05:23:30;20.30;99.90
7472;DHT22;3777;48.722;8.110;2023-07-13T05:25:57;20.40;99.90
7472;DHT22;3777;48.722;8.110;2023-07-13T05:28:25;20.40;99.90
7472;DHT22;3777;48.722;8.110;2023-07-13T05:30:52;20.50;99.90
7472;DHT22;3777;48.722;8.110;2023-07-13T05:33:20;20.60;99.90
7472;DHT22;3777;48.722;8.110;2023-07-13T05:35:47;20.80;99.90
7472;DHT22;3777;48.722;8.110;2023-07-13T05:38:16;21.10;99.90
7472;DHT22;3777;48.722;8.110;2023-07-13T05:40:43;21.30;99.90
7472;DHT22;3777;48.722;8.110;2023-07-13T05:43:11;21.40;99.90
7472;DHT22;3777;48.722;8.110;2023-07-13T05:45:39;21.60;99.90
7472;DHT22;3777;48.722;8.110;2023-07-13T05:48:06;22.00;99.90
7472;DHT22;3777;48.722;8.110;2023-07-13T05:50:33;22.40;99.90
7472;DHT22;3777;48.722;8.110;2023-07-13T05:53:00;22.60;99.90
7472;DHT22;3777;48.722;8.110;2023-07-13T05:55:29;22.80;99.90
7472;DHT22;3777;48.722;8.110;2023-07-13T05:57:56;23.40;99.90
7472;DHT22;3777;48.722;8.110;2023-07-13T06:00:23;24.20;99.90
7472;DHT22;3777;48.722;8.110;2023-07-13T06:02:50;24.60;99.90
7472;DHT22;3777;48.722;8.110;2023-07-13T06:05:17;24.70;99.90
7472;DHT22;3777;48.722;8.110;2023-07-13T06:07:45;24.60;99.90
7472;DHT22;3777;48.722;8.110;2023-07-13T06:10:12;24.90;99.90
7472;DHT22;3777;48.722;8.110;2023-07-13T06:12:40;25.20;99.90
7472;DHT22;3777;48.722;8.110;2023-07-13T06:15:08;25.70;99.90
7472;DHT22;3777;48.722;8.110;2023-07-13T06:17:35;25.70;99.90
7472;DHT22;3777;48.722;8.110;2023-07-13T06:20:02;25.70;99.90
7472;DHT22;3777;48.722;8.110;2023-07-13T06:22:30;25.90;99.90
7472;DHT22;3777;48.722;8.110;2023-07-13T06:24:57;26.00;99.90
7472;DHT22;3777;48.722;8.110;2023-07-13T06:27:24;26.10;99.90
7472;DHT22;3777;48.722;8.110;2023-07-13T06:29:52;26.30;99.90
7472;DHT22;3777;48.722;8.110;2023-07-13T06:32:19;26.50;99.90
7472;DHT22;3777;48.722;8.110;2023-07-13T06:34:46;26.50;99.90
7472;DHT22;3777;48.722;8.110;2023-07-13T06:37:13;26.80;99.90
7472;DHT22;3777;48.722;8.110;2023-07-13T06:39:40;27.30;99.90
7472;DHT22;3777;48.722;8.110;2023-07-13T06:42:07;27.50;99.90
7472;DHT22;3777;48.722;8.110;2023-07-13T06:44:34;27.90;99.90
7472;DHT22;3777;48.722;8.110;2023-07-13T06:47:03;28.00;99.90
7472;DHT22;3777;48.722;8.110;2023-07-13T06:49:30;28.80;99.90
7472;DHT22;3777;48.722;8.110;2023-07-13T06:51:57;29.50;99.90
7472;DHT22;3777;48.722;8.110;2023-07-13T06:54:24;30.00;98.90
7472;DHT22;3777;48.722;8.110;2023-07-13T06:56:51;30.40;97.50
7472;DHT22;3777;48.722;8.110;2023-07-13T06:59:19;30.50;94.00
7472;DHT22;3777;48.722;8.110;2023-07-13T07:01:46;29.30;95.50
7472;DHT22;3777;48.722;8.110;2023-07-13T07:04:14;29.20;95.50
7472;DHT22;3777;48.722;8.110;2023-07-13T07:06:41;28.90;95.00
7472;DHT22;3777;48.722;8.110;2023-07-13T07:09:08;28.60;93.70
7472;DHT22;3777;48.722;8.110;2023-07-13T07:11:35;27.90;93.40
7472;DHT22;3777;48.722;8.110;2023-07-13T07:14:03;27.80;93.40
7472;DHT22;3777;48.722;8.110;2023-07-13T07:16:30;27.30;93.60
7472;DHT22;3777;48.722;8.110;2023-07-13T07:18:57;26.90;95.90
7472;DHT22;3777;48.722;8.110;2023-07-13T07:21:26;26.70;94.90
7472;DHT22;3777;48.722;8.110;2023-07-13T07:23:53;26.60;95.90
7472;DHT22;3777;48.722;8.110;2023-07-13T07:26:20;26.50;95.60
7472;DHT22;3777;48.722;8.110;2023-07-13T07:28:47;26.50;97.30
7472;DHT22;3777;48.722;8.110;2023-07-13T07:31:14;26.50;94.80
7472;DHT22;3777;48.722;8.110;2023-07-13T07:33:41;26.60;96.30
7472;DHT22;3777;48.722;8.110;2023-07-13T07:36:08;26.70;97.10
7472;DHT22;3777;48.722;8.110;2023-07-13T07:38:37;26.80;97.30
7472;DHT22;3777;48.722;8.110;2023-07-13T07:41:04;27.00;98.40
7472;DHT22;3777;48.722;8.110;2023-07-13T07:43:31;27.20;95.30
7472;DHT22;3777;48.722;8.110;2023-07-13T07:45:58;27.40;95.10
7472;DHT22;3777;48.722;8.110;2023-07-13T07:48:25;27.60;95.00
7472;DHT22;3777;48.722;8.110;2023-07-13T07:50:52;27.80;93.80
7472;DHT22;3777;48.722;8.110;2023-07-13T07:53:19;27.90;94.50
7472;DHT22;3777;48.722;8.110;2023-07-13T07:55:48;28.40;94.30
7472;DHT22;3777;48.722;8.110;2023-07-13T07:58:15;29.00;92.50
7472;DHT22;3777;48.722;8.110;2023-07-13T08:00:42;29.50;90.80
7472;DHT22;3777;48.722;8.110;2023-07-13T08:03:09;30.10;89.60
7472;DHT22;3777;48.722;8.110;2023-07-13T08:05:36;30.50;83.30
7472;DHT22;3777;48.722;8.110;2023-07-13T08:08:03;31.10;82.70
7472;DHT22;3777;48.722;8.110;2023-07-13T08:10:30;31.70;79.20
7472;DHT22;3777;48.722;8.110;2023-07-13T08:12:59;31.80;78.50
7472;DHT22;3777;48.722;8.110;2023-07-13T08:15:26;32.20;75.70
7472;DHT22;3777;48.722;8.110;2023-07-13T08:17:53;32.40;74.50
7472;DHT22;3777;48.722;8.110;2023-07-13T08:20:19;32.90;73.10
7472;DHT22;3777;48.722;8.110;2023-07-13T08:22:46;33.30;74.80
7472;DHT22;3777;48.722;8.110;2023-07-13T08:25:13;33.60;67.40
7472;DHT22;3777;48.722;8.110;2023-07-13T08:27:40;33.80;65.20
7472;DHT22;3777;48.722;8.110;2023-07-13T08:30:09;33.70;62.00
7472;DHT22;3777;48.722;8.110;2023-07-13T08:32:36;34.00;61.70
7472;DHT22;3777;48.722;8.110;2023-07-13T08:35:05;34.30;61.40
7472;DHT22;3777;48.722;8.110;2023-07-13T08:37:32;34.50;59.10
7472;DHT22;3777;48.722;8.110;2023-07-13T08:39:59;34.80;58.40
7472;DHT22;3777;48.722;8.110;2023-07-13T08:42:33;35.60;58.40
7472;DHT22;3777;48.722;8.110;2023-07-13T08:45:12;36.20;58.80
7472;DHT22;3777;48.722;8.110;2023-07-13T08:47:43;36.70;54.00
7472;DHT22;3777;48.722;8.110;2023-07-13T08:50:13;37.80;55.00
7472;DHT22;3777;48.722;8.110;2023-07-13T08:52:43;38.90;51.00
7472;DHT22;3777;48.722;8.110;2023-07-13T08:55:13;39.20;47.60
7472;DHT22;3777;48.722;8.110;2023-07-13T08:57:43;39.30;45.90
7472;DHT22;3777;48.722;8.110;2023-07-13T09:00:14;40.50;44.60
7472;DHT22;3777;48.722;8.110;2023-07-13T09:02:45;41.40;40.20
7472;DHT22;3777;48.722;8.110;2023-07-13T09:05:15;40.30;39.20
7472;DHT22;3777;48.722;8.110;2023-07-13T09:08:02;40.60;38.20
7472;DHT22;3777;48.722;8.110;2023-07-13T09:10:35;41.00;36.90
7472;DHT22;3777;48.722;8.110;2023-07-13T09:13:16;41.50;38.60
7472;DHT22;3777;48.722;8.110;2023-07-13T09:15:49;41.60;34.60
7472;DHT22;3777;48.722;8.110;2023-07-13T09:18:22;39.80;35.00
7472;DHT22;3777;48.722;8.110;2023-07-13T09:20:53;39.90;38.20
7472;DHT22;3777;48.722;8.110;2023-07-13T09:23:23;40.40;36.50
7472;DHT22;3777;48.722;8.110;2023-07-13T09:25:53;40.90;34.10
7472;DHT22;3777;48.722;8.110;2023-07-13T09:28:24;41.50;33.10
7472;DHT22;3777;48.722;8.110;2023-07-13T09:30:58;42.20;31.50
7472;DHT22;3777;48.722;8.110;2023-07-13T09:33:27;41.50;32.00
7472;DHT22;3777;48.722;8.110;2023-07-13T09:35:56;41.90;31.10
7472;DHT22;3777;48.722;8.110;2023-07-13T09:38:25;41.80;30.10
7472;DHT22;3777;48.722;8.110;2023-07-13T09:41:02;41.80;31.30
7472;DHT22;3777;48.722;8.110;2023-07-13T09:43:34;42.10;33.00
7472;DHT22;3777;48.722;8.110;2023-07-13T09:46:03;42.30;31.10
7472;DHT22;3777;48.722;8.110;2023-07-13T09:48:34;42.00;30.50
7472;DHT22;3777;48.722;8.110;2023-07-13T09:51:10;42.00;32.50
7472;DHT22;3777;48.722;8.110;2023-07-13T09:53:41;42.40;32.00
7472;DHT22;3777;48.722;8.110;2023-07-13T09:56:19;42.50;30.30
7472;DHT22;3777;48.722;8.110;2023-07-13T09:58:47;42.30;30.30
7472;DHT22;3777;48.722;8.110;2023-07-13T10:01:15;42.30;31.80
7472;DHT22;3777;48.722;8.110;2023-07-13T10:03:59;42.80;28.30
7472;DHT22;3777;48.722;8.110;2023-07-13T10:06:26;43.50;29.40
7472;DHT22;3777;48.722;8.110;2023-07-13T10:08:55;43.80;27.50
7472;DHT22;3777;48.722;8.110;2023-07-13T10:11:23;44.40;26.90
7472;DHT22;3777;48.722;8.110;2023-07-13T10:13:53;44.90;28.30
7472;DHT22;3777;48.722;8.110;2023-07-13T10:16:23;45.50;26.90
7472;DHT22;3777;48.722;8.110;2023-07-13T10:18:55;46.00;26.30
7472;DHT22;3777;48.722;8.110;2023-07-13T10:21:28;45.10;26.70
7472;DHT22;3777;48.722;8.110;2023-07-13T10:24:02;44.40;26.70
7472;DHT22;3777;48.722;8.110;2023-07-13T10:26:33;43.10;26.60
7472;DHT22;3777;48.722;8.110;2023-07-13T10:29:04;43.30;26.20
7472;DHT22;3777;48.722;8.110;2023-07-13T10:31:34;43.40;27.90
7472;DHT22;3777;48.722;8.110;2023-07-13T10:34:03;43.50;27.00
7472;DHT22;3777;48.722;8.110;2023-07-13T10:36:34;43.80;27.70
7472;DHT22;3777;48.722;8.110;2023-07-13T10:39:04;42.80;25.20
7472;DHT22;3777;48.722;8.110;2023-07-13T10:41:36;41.40;27.10
7472;DHT22;3777;48.722;8.110;2023-07-13T10:44:05;40.00;25.60
7472;DHT22;3777;48.722;8.110;2023-07-13T10:46:35;38.80;28.10
7472;DHT22;3777;48.722;8.110;2023-07-13T10:49:05;38.00;28.80
7472;DHT22;3777;48.722;8.110;2023-07-13T10:51:34;38.50;28.90
7472;DHT22;3777;48.722;8.110;2023-07-13T10:54:21;39.90;28.10
7472;DHT22;3777;48.722;8.110;2023-07-13T10:56:54;40.50;27.80
7472;DHT22;3777;48.722;8.110;2023-07-13T10:59:33;41.70;27.80
7472;DHT22;3777;48.722;8.110;2023-07-13T11:02:13;41.70;26.70
7472;DHT22;3777;48.722;8.110;2023-07-13T11:04:44;40.30;27.50
7472;DHT22;3777;48.722;8.110;2023-07-13T11:07:20;39.90;26.30
7472;DHT22;3777;48.722;8.110;2023-07-13T11:09:50;40.70;26.50
7472;DHT22;3777;48.722;8.110;2023-07-13T11:12:51;38.40;26.00
7472;DHT22;3777;48.722;8.110;2023-07-13T11:15:39;36.90;28.60
7472;DHT22;3777;48.722;8.110;2023-07-13T11:18:20;34.90;30.90
7472;DHT22;3777;48.722;8.110;2023-07-13T11:20:49;34.20;34.40
7472;DHT22;3777;48.722;8.110;2023-07-13T11:23:29;33.80;34.40
7472;DHT22;3777;48.722;8.110;2023-07-13T11:25:57;33.60;33.20
7472;DHT22;3777;48.722;8.110;2023-07-13T11:28:27;33.60;34.10
7472;DHT22;3777;48.722;8.110;2023-07-13T11:31:02;33.40;36.80
7472;DHT22;3777;48.722;8.110;2023-07-13T11:33:56;33.30;35.70
7472;DHT22;3777;48.722;8.110;2023-07-13T11:36:27;32.90;37.50
7472;DHT22;3777;48.722;8.110;2023-07-13T11:39:01;32.80;37.40
7472;DHT22;3777;48.722;8.110;2023-07-13T11:41:31;32.70;37.10
7472;DHT22;3777;48.722;8.110;2023-07-13T11:44:10;32.60;38.70
7472;DHT22;3777;48.722;8.110;2023-07-13T11:46:37;32.40;37.40
7472;DHT22;3777;48.722;8.110;2023-07-13T11:49:06;32.20;35.30
7472;DHT22;3777;48.722;8.110;2023-07-13T11:51:35;32.20;37.30
7472;DHT22;3777;48.722;8.110;2023-07-13T11:54:04;32.30;36.90
7472;DHT22;3777;48.722;8.110;2023-07-13T11:56:36;32.40;40.60
7472;DHT22;3777;48.722;8.110;2023-07-13T11:59:06;32.50;38.80
7472;DHT22;3777;48.722;8.110;2023-07-13T12:01:34;32.60;37.70
7472;DHT22;3777;48.722;8.110;2023-07-13T12:04:04;32.60;37.60
7472;DHT22;3777;48.722;8.110;2023-07-13T12:06:34;32.70;35.50
7472;DHT22;3777;48.722;8.110;2023-07-13T12:09:11;32.70;38.20
7472;DHT22;3777;48.722;8.110;2023-07-13T12:11:40;32.60;36.70
7472;DHT22;3777;48.722;8.110;2023-07-13T12:14:13;32.70;37.80
7472;DHT22;3777;48.722;8.110;2023-07-13T12:16:41;32.70;36.00
7472;DHT22;3777;48.722;8.110;2023-07-13T12:19:17;32.60;35.10
7472;DHT22;3777;48.722;8.110;2023-07-13T12:21:47;32.50;37.30
7472;DHT22;3777;48.722;8.110;2023-07-13T12:24:15;32.40;35.90
7472;DHT22;3777;48.722;8.110;2023-07-13T12:26:43;32.40;37.80
7472;DHT22;3777;48.722;8.110;2023-07-13T12:29:15;32.40;35.30
7472;DHT22;3777;48.722;8.110;2023-07-13T12:31:45;32.30;36.80
7472;DHT22;3777;48.722;8.110;2023-07-13T12:34:16;32.20;37.50
7472;DHT22;3777;48.722;8.110;2023-07-13T12:36:48;32.10;37.50
7472;DHT22;3777;48.722;8.110;2023-07-13T12:39:18;31.90;37.00
7472;DHT22;3777;48.722;8.110;2023-07-13T12:41:47;31.80;38.20
7472;DHT22;3777;48.722;8.110;2023-07-13T12:44:17;31.80;39.10
7472;DHT22;3777;48.722;8.110;2023-07-13T12:46:53;31.80;37.30
7472;DHT22;3777;48.722;8.110;2023-07-13T12:49:26;31.80;36.70
7472;DHT22;3777;48.722;8.110;2023-07-13T12:52:00;31.40;35.70
7472;DHT22;3777;48.722;8.110;2023-07-13T12:54:28;31.30;38.80
7472;DHT22;3777;48.722;8.110;2023-07-13T12:56:57;31.40;37.20
7472;DHT22;3777;48.722;8.110;2023-07-13T12:59:29;31.30;39.20
7472;DHT22;3777;48.722;8.110;2023-07-13T13:01:56;31.20;37.30
7472;DHT22;3777;48.722;8.110;2023-07-13T13:04:23;31.20;41.50
7472;DHT22;3777;48.722;8.110;2023-07-13T13:07:03;31.40;40.50
7472;DHT22;3777;48.722;8.110;2023-07-13T13:09:33;31.30;36.70
7472;DHT22;3777;48.722;8.110;2023-07-13T13:12:00;31.30;37.60
7472;DHT22;3777;48.722;8.110;2023-07-13T13:14:27;31.40;35.50
7472;DHT22;3777;48.722;8.110;2023-07-13T13:16:54;31.30;35.70
7472;DHT22;3777;48.722;8.110;2023-07-13T13:19:23;31.30;40.10
7472;DHT22;3777;48.722;8.110;2023-07-13T13:21:51;31.30;37.00
7472;DHT22;3777;48.722;8.110;2023-07-13T13:24:21;31.30;38.60
7472;DHT22;3777;48.722;8.110;2023-07-13T13:26:50;31.20;36.50
7472;DHT22;3777;48.722;8.110;2023-07-13T13:29:19;31.30;38.10
7472;DHT22;3777;48.722;8.110;2023-07-13T13:31:47;31.40;40.60
7472;DHT22;3777;48.722;8.110;2023-07-13T13:34:16;31.60;38.00
7472;DHT22;3777;48.722;8.110;2023-07-13T13:36:44;31.60;38.20
7472;DHT22;3777;48.722;8.110;2023-07-13T13:39:20;31.50;38.60
7472;DHT22;3777;48.722;8.110;2023-07-13T13:41:49;31.30;37.30
7472;DHT22;3777;48.722;8.110;2023-07-13T13:44:17;31.20;39.20
7472;DHT22;3777;48.722;8.110;2023-07-13T13:46:46;30.80;37.00
7472;DHT22;3777;48.722;8.110;2023-07-13T13:49:15;30.40;36.40
7472;DHT22;3777;48.722;8.110;2023-07-13T13:54:58;30.70;38.00
7472;DHT22;3777;48.722;8.110;2023-07-13T13:57:26;31.00;37.30
7472;DHT22;3777;48.722;8.110;2023-07-13T13:59:53;31.00;38.20
7472;DHT22;3777;48.722;8.110;2023-07-13T14:02:23;31.10;37.90
7472;DHT22;3777;48.722;8.110;2023-07-13T14:04:55;31.10;36.80
7472;DHT22;3777;48.722;8.110;2023-07-13T14:07:23;31.20;36.70
7472;DHT22;3777;48.722;8.110;2023-07-13T14:09:50;31.20;36.60
7472;DHT22;3777;48.722;8.110;2023-07-13T14:12:19;31.30;35.50
7472;DHT22;3777;48.722;8.110;2023-07-13T14:14:47;31.40;34.90
7472;DHT22;3777;48.722;8.110;2023-07-13T14:17:19;31.50;35.30
7472;DHT22;3777;48.722;8.110;2023-07-13T14:19:47;31.50;34.50
7472;DHT22;3777;48.722;8.110;2023-07-13T14:22:16;31.50;36.00
7472;DHT22;3777;48.722;8.110;2023-07-13T14:24:44;31.30;38.20
7472;DHT22;3777;48.722;8.110;2023-07-13T14:27:11;31.30;36.30
7472;DHT22;3777;48.722;8.110;2023-07-13T14:29:40;31.20;37.20
7472;DHT22;3777;48.722;8.110;2023-07-13T14:32:10;30.90;36.70
7472;DHT22;3777;48.722;8.110;2023-07-13T14:34:37;30.80;37.60
7472;DHT22;3777;48.722;8.110;2023-07-13T14:37:05;30.90;35.20
7472;DHT22;3777;48.722;8.110;2023-07-13T14:39:32;30.90;36.30
7472;DHT22;3777;48.722;8.110;2023-07-13T14:41:58;30.70;36.80
7472;DHT22;3777;48.722;8.110;2023-07-13T14:44:27;30.70;38.10
7472;DHT22;3777;48.722;8.110;2023-07-13T14:46:57;30.70;40.60
7472;DHT22;3777;48.722;8.110;2023-07-13T14:49:28;30.70;39.30
7472;DHT22;3777;48.722;8.110;2023-07-13T14:52:12;30.70;38.50
7472;DHT22;3777;48.722;8.110;2023-07-13T14:54:39;30.70;38.30
7472;DHT22;3777;48.722;8.110;2023-07-13T14:57:10;30.80;38.30
7472;DHT22;3777;48.722;8.110;2023-07-13T14:59:38;31.00;39.20
7472;DHT22;3777;48.722;8.110;2023-07-13T15:02:15;31.10;39.90
7472;DHT22;3777;48.722;8.110;2023-07-13T15:04:42;31.10;38.50
7472;DHT22;3777;48.722;8.110;2023-07-13T15:07:10;31.00;37.50
7472;DHT22;3777;48.722;8.110;2023-07-13T15:09:39;31.20;36.70
7472;DHT22;3777;48.722;8.110;2023-07-13T15:12:18;31.30;37.60
7472;DHT22;3777;48.722;8.110;2023-07-13T15:14:46;31.30;37.00
7472;DHT22;3777;48.722;8.110;2023-07-13T15:17:23;31.10;37.60
7472;DHT22;3777;48.722;8.110;2023-07-13T15:19:53;30.80;37.30
7472;DHT22;3777;48.722;8.110;2023-07-13T15:22:20;30.70;39.90
7472;DHT22;3777;48.722;8.110;2023-07-13T15:24:47;30.60;38.70
7472;DHT22;3777;48.722;8.110;2023-07-13T15:27:14;30.40;40.10
7472;DHT22;3777;48.722;8.110;2023-07-13T15:29:41;30.20;41.00
7472;DHT22;3777;48.722;8.110;2023-07-13T15:32:12;30.10;41.40
7472;DHT22;3777;48.722;8.110;2023-07-13T15:34:41;30.10;41.00
7472;DHT22;3777;48.722;8.110;2023-07-13T15:37:13;30.00;40.60
7472;DHT22;3777;48.722;8.110;2023-07-13T15:39:40;30.00;39.50
7472;DHT22;3777;48.722;8.110;2023-07-13T15:42:12;30.00;40.90
7472;DHT22;3777;48.722;8.110;2023-07-13T15:44:40;30.00;38.30
7472;DHT22;3777;48.722;8.110;2023-07-13T15:47:10;30.00;38.00
7472;DHT22;3777;48.722;8.110;2023-07-13T15:49:38;29.90;38.60
7472;DHT22;3777;48.722;8.110;2023-07-13T15:52:13;29.80;38.70
7472;DHT22;3777;48.722;8.110;2023-07-13T15:54:43;29.80;39.10
7472;DHT22;3777;48.722;8.110;2023-07-13T15:57:11;29.70;40.00
7472;DHT22;3777;48.722;8.110;2023-07-13T15:59:38;29.70;39.70
7472;DHT22;3777;48.722;8.110;2023-07-13T16:02:12;29.70;42.00
7472;DHT22;3777;48.722;8.110;2023-07-13T16:04:41;29.70;40.70
7472;DHT22;3777;48.722;8.110;2023-07-13T16:07:10;29.70;40.60
7472;DHT22;3777;48.722;8.110;2023-07-13T16:09:38;29.60;41.40
7472;DHT22;3777;48.722;8.110;2023-07-13T16:12:09;29.60;40.10
7472;DHT22;3777;48.722;8.110;2023-07-13T16:14:37;29.50;40.00
7472;DHT22;3777;48.722;8.110;2023-07-13T16:17:05;29.50;41.30
7472;DHT22;3777;48.722;8.110;2023-07-13T16:19:32;29.40;43.00